createdAt,value
2024-02-02T00:00:42.206Z,1024.58
2024-02-02T00:01:48.167Z,1024.56
2024-02-02T00:02:42.178Z,1024.52
2024-02-02T00:03:42.363Z,1024.55
2024-02-02T00:04:42.306Z,1024.52
2024-02-02T00:05:42.378Z,1024.49
2024-02-02T00:06:42.627Z,1024.50
2024-02-02T00:07:42.544Z,1024.50
2024-02-02T00:08:42.629Z,1024.46
2024-02-02T00:09:42.718Z,1024.43
2024-02-02T00:10:42.815Z,1024.39
2024-02-02T00:11:42.867Z,1024.30
2024-02-02T00:12:42.930Z,1024.31
2024-02-02T00:13:43.050Z,1024.23
2024-02-02T00:14:43.147Z,1024.24
2024-02-02T00:15:43.208Z,1024.23
2024-02-02T00:16:43.277Z,1024.22
2024-02-02T00:17:43.409Z,1024.22
2024-02-02T00:18:43.563Z,1024.21
2024-02-02T00:19:43.595Z,1024.25
2024-02-02T00:20:43.650Z,1024.20
2024-02-02T00:21:43.732Z,1024.19
2024-02-02T00:22:43.811Z,1024.16
2024-02-02T00:23:43.897Z,1024.11
2024-02-02T00:24:43.957Z,1024.07
2024-02-02T00:25:44.052Z,1024.03
2024-02-02T00:26:44.091Z,1024.09
2024-02-02T00:27:44.189Z,1024.04
2024-02-02T00:28:44.257Z,1024.07
2024-02-02T00:29:44.357Z,1024.02
2024-02-02T00:30:44.450Z,1023.97
2024-02-02T00:31:44.535Z,1023.94
2024-02-02T00:32:44.645Z,1023.93
2024-02-02T00:33:44.748Z,1023.90
2024-02-02T00:34:44.884Z,1023.94
2024-02-02T00:35:44.836Z,1023.98
2024-02-02T00:36:44.894Z,1023.96
2024-02-02T00:37:44.994Z,1024.04
2024-02-02T00:38:45.083Z,1024.01
2024-02-02T00:39:45.149Z,1023.99
2024-02-02T00:40:45.251Z,1023.99
2024-02-02T00:41:45.303Z,1023.97
2024-02-02T00:42:45.388Z,1024.01
2024-02-02T00:43:45.478Z,1023.99
2024-02-02T00:44:45.560Z,1023.97
2024-02-02T00:45:45.695Z,1023.99
2024-02-02T00:46:45.745Z,1024.00
2024-02-02T00:47:45.870Z,1023.98
2024-02-02T00:48:46.018Z,1023.90
2024-02-02T00:49:46.042Z,1023.87
2024-02-02T00:50:46.064Z,1023.81
2024-02-02T00:51:46.174Z,1023.81
2024-02-02T00:52:46.228Z,1023.70
2024-02-02T00:53:46.347Z,1023.68
2024-02-02T00:54:46.418Z,1023.69
2024-02-02T00:55:46.523Z,1023.66
2024-02-02T00:56:46.728Z,1023.53
2024-02-02T00:57:46.751Z,1023.52
2024-02-02T00:58:46.774Z,1023.45
2024-02-02T00:59:46.863Z,1023.53
2024-02-02T01:00:47.023Z,1023.51
2024-02-02T01:01:47.041Z,1023.56
2024-02-02T01:02:47.099Z,1023.55
2024-02-02T01:03:47.243Z,1023.55
2024-02-02T01:04:47.347Z,1023.53
2024-02-02T01:05:47.403Z,1023.53
2024-02-02T01:06:47.524Z,1023.56
2024-02-02T01:07:47.453Z,1023.62
2024-02-02T01:08:47.636Z,1023.64
2024-02-02T01:09:47.626Z,1023.67
2024-02-02T01:10:47.740Z,1023.67
2024-02-02T01:11:47.846Z,1023.65
2024-02-02T01:12:47.925Z,1023.61
2024-02-02T01:13:47.973Z,1023.65
2024-02-02T01:14:48.050Z,1023.67
2024-02-02T01:15:48.119Z,1023.66
2024-02-02T01:16:48.225Z,1023.62
2024-02-02T01:17:48.340Z,1023.69
2024-02-02T01:18:48.435Z,1023.66
2024-02-02T01:19:48.454Z,1023.66
2024-02-02T01:20:48.490Z,1023.61
2024-02-02T01:21:48.587Z,1023.54
2024-02-02T01:22:48.666Z,1023.53
2024-02-02T01:23:48.746Z,1023.44
2024-02-02T01:24:48.814Z,1023.56
2024-02-02T01:25:48.879Z,1023.52
2024-02-02T01:26:49.024Z,1023.46
2024-02-02T01:27:49.066Z,1023.47
2024-02-02T01:28:49.118Z,1023.52
2024-02-02T01:29:49.212Z,1023.47
2024-02-02T01:30:49.235Z,1023.50
2024-02-02T01:31:49.362Z,1023.51
2024-02-02T01:32:49.563Z,1023.48
2024-02-02T01:33:49.653Z,1023.52
2024-02-02T01:34:49.763Z,1023.56
2024-02-02T01:35:49.706Z,1023.53
2024-02-02T01:36:49.749Z,1023.56
2024-02-02T01:37:49.802Z,1023.61
2024-02-02T01:38:49.911Z,1023.66
2024-02-02T01:39:49.997Z,1023.62
2024-02-02T01:40:50.085Z,1023.65
2024-02-02T01:41:50.317Z,1023.66
2024-02-02T01:42:50.276Z,1023.64
2024-02-02T01:43:50.327Z,1023.65
2024-02-02T01:44:50.452Z,1023.55
2024-02-02T01:45:50.498Z,1023.49
2024-02-02T01:46:50.621Z,1023.46
2024-02-02T01:47:50.781Z,1023.47
2024-02-02T01:48:50.833Z,1023.45
2024-02-02T01:49:50.898Z,1023.40
2024-02-02T01:50:50.987Z,1023.34
2024-02-02T01:51:51.029Z,1023.31
2024-02-02T01:52:51.095Z,1023.27
2024-02-02T01:53:51.208Z,1023.26
2024-02-02T01:54:51.273Z,1023.26
2024-02-02T01:55:51.388Z,1023.19
2024-02-02T01:56:51.459Z,1023.24
2024-02-02T01:57:51.562Z,1023.20
2024-02-02T01:58:51.642Z,1023.22
2024-02-02T01:59:51.796Z,1023.23
2024-02-02T02:00:51.846Z,1023.25
2024-02-02T02:01:51.885Z,1023.29
2024-02-02T02:02:52.076Z,1023.25
2024-02-02T02:03:52.143Z,1023.28
2024-02-02T02:04:52.127Z,1023.30
2024-02-02T02:05:52.282Z,1023.35
2024-02-02T02:06:52.296Z,1023.42
2024-02-02T02:07:52.369Z,1023.40
2024-02-02T02:08:52.481Z,1023.37
2024-02-02T02:09:52.533Z,1023.35
2024-02-02T02:10:52.624Z,1023.39
2024-02-02T02:11:52.802Z,1023.44
2024-02-02T02:12:52.796Z,1023.45
2024-02-02T02:13:52.909Z,1023.48
2024-02-02T02:14:53.026Z,1023.48
2024-02-02T02:15:53.078Z,1023.54
2024-02-02T02:16:53.193Z,1023.55
2024-02-02T02:17:53.705Z,1023.49
2024-02-02T02:18:59.287Z,1023.52
2024-02-02T02:19:53.560Z,1023.51
2024-02-02T02:20:53.577Z,1023.49
2024-02-02T02:21:53.642Z,1023.45
2024-02-02T02:22:53.734Z,1023.40
2024-02-02T02:23:53.861Z,1023.35
2024-02-02T02:24:53.903Z,1023.39
2024-02-02T02:25:54.005Z,1023.33
2024-02-02T02:26:54.059Z,1023.28
2024-02-02T02:27:54.148Z,1023.29
2024-02-02T02:28:54.244Z,1023.27
2024-02-02T02:29:54.340Z,1023.29
2024-02-02T02:30:54.368Z,1023.26
2024-02-02T02:31:54.576Z,1023.32
2024-02-02T02:32:54.629Z,1023.26
2024-02-02T02:33:54.802Z,1023.20
2024-02-02T02:34:54.732Z,1023.19
2024-02-02T02:35:54.865Z,1023.21
2024-02-02T02:36:54.924Z,1023.23
2024-02-02T02:37:54.962Z,1023.22
2024-02-02T02:38:55.086Z,1023.23
2024-02-02T02:39:55.156Z,1023.30
2024-02-02T02:40:55.248Z,1023.27
2024-02-02T02:41:55.367Z,1023.26
2024-02-02T02:42:55.399Z,1023.23
2024-02-02T02:43:55.545Z,1023.22
2024-02-02T02:44:55.791Z,1023.24
2024-02-02T02:45:55.647Z,1023.22
2024-02-02T02:46:55.750Z,1023.23
2024-02-02T02:47:56.089Z,1023.20
2024-02-02T02:48:56.158Z,1023.18
2024-02-02T02:49:55.958Z,1023.18
2024-02-02T02:50:56.054Z,1023.18
2024-02-02T02:51:56.137Z,1023.15
2024-02-02T02:52:56.215Z,1023.15
2024-02-02T02:53:56.361Z,1023.16
2024-02-02T02:54:56.391Z,1023.15
2024-02-02T02:55:56.493Z,1023.18
2024-02-02T02:56:56.580Z,1023.09
2024-02-02T02:57:56.626Z,1023.12
2024-02-02T02:58:56.725Z,1023.14
2024-02-02T02:59:56.854Z,1023.07
2024-02-02T03:00:56.933Z,1022.99
2024-02-02T03:01:56.947Z,1022.91
2024-02-02T03:02:57.063Z,1022.89
2024-02-02T03:03:57.190Z,1022.86
2024-02-02T03:04:57.204Z,1022.76
2024-02-02T03:05:57.340Z,1022.81
2024-02-02T03:06:57.449Z,1022.73
2024-02-02T03:07:57.434Z,1022.76
2024-02-02T03:08:57.511Z,1022.74
2024-02-02T03:09:57.599Z,1022.92
2024-02-02T03:10:57.660Z,1022.85
2024-02-02T03:11:57.781Z,1022.85
2024-02-02T03:12:57.859Z,1022.89
2024-02-02T03:13:57.920Z,1022.89
2024-02-02T03:14:58.043Z,1022.89
2024-02-02T03:15:58.137Z,1022.97
2024-02-02T03:16:58.201Z,1023.07
2024-02-02T03:17:58.349Z,1022.97
2024-02-02T03:18:58.560Z,1023.01
2024-02-02T03:19:58.554Z,1022.95
2024-02-02T03:20:58.587Z,1022.94
2024-02-02T03:21:58.591Z,1022.92
2024-02-02T03:22:58.709Z,1022.84
2024-02-02T03:23:58.765Z,1022.79
2024-02-02T03:24:58.889Z,1022.76
2024-02-02T03:25:58.931Z,1022.75
2024-02-02T03:26:59.026Z,1022.77
2024-02-02T03:27:59.046Z,1022.78
2024-02-02T03:28:59.142Z,1022.73
2024-02-02T03:29:59.228Z,1022.73
2024-02-02T03:30:59.318Z,1022.77
2024-02-02T03:31:59.404Z,1022.77
2024-02-02T03:32:59.576Z,1022.80
2024-02-02T03:33:59.709Z,1022.80
2024-02-02T03:34:59.674Z,1022.84
2024-02-02T03:35:59.811Z,1022.89
2024-02-02T03:36:59.847Z,1022.94
2024-02-02T03:37:59.944Z,1023.01
2024-02-02T03:39:00.055Z,1023.00
2024-02-02T03:40:00.176Z,1023.07
2024-02-02T03:41:00.205Z,1023.10
2024-02-02T03:42:00.352Z,1023.07
2024-02-02T03:43:00.445Z,1023.01
2024-02-02T03:44:00.508Z,1023.06
2024-02-02T03:45:00.621Z,1023.05
2024-02-02T03:46:00.650Z,1023.04
2024-02-02T03:47:00.763Z,1022.97
2024-02-02T03:48:01.015Z,1023.03
2024-02-02T03:49:01.067Z,1023.08
2024-02-02T03:50:01.158Z,1023.10
2024-02-02T03:51:01.263Z,1023.06
2024-02-02T03:52:01.238Z,1023.07
2024-02-02T03:53:01.330Z,1023.05
2024-02-02T03:54:01.471Z,1023.04
2024-02-02T03:55:01.566Z,1023.02
2024-02-02T03:56:01.558Z,1023.04
2024-02-02T03:57:01.656Z,1023.04
2024-02-02T03:58:01.717Z,1023.03
2024-02-02T03:59:01.759Z,1023.06
2024-02-02T04:00:02.046Z,1023.12
2024-02-02T04:01:01.978Z,1023.11
2024-02-02T04:02:02.012Z,1023.00
2024-02-02T04:03:02.215Z,1022.99
2024-02-02T04:04:02.373Z,1023.00
2024-02-02T04:05:02.338Z,1022.97
2024-02-02T04:06:02.440Z,1022.98
2024-02-02T04:07:02.437Z,1022.98
2024-02-02T04:08:02.533Z,1023.01
2024-02-02T04:09:02.631Z,1022.90
2024-02-02T04:10:02.854Z,1022.94
2024-02-02T04:11:02.785Z,1022.94
2024-02-02T04:12:02.900Z,1022.96
2024-02-02T04:13:02.944Z,1022.89
2024-02-02T04:14:03.118Z,1022.88
2024-02-02T04:15:03.164Z,1022.87
2024-02-02T04:16:03.193Z,1022.86
2024-02-02T04:17:03.269Z,1022.90
2024-02-02T04:18:03.389Z,1022.88
2024-02-02T04:19:03.499Z,1022.84
2024-02-02T04:20:03.547Z,1022.78
2024-02-02T04:21:03.607Z,1022.74
2024-02-02T04:22:03.676Z,1022.75
2024-02-02T04:23:03.767Z,1022.73
2024-02-02T04:24:03.954Z,1022.78
2024-02-02T04:25:03.980Z,1022.73
2024-02-02T04:26:04.021Z,1022.74
2024-02-02T04:27:04.126Z,1022.74
2024-02-02T04:28:04.161Z,1022.74
2024-02-02T04:29:04.229Z,1022.77
2024-02-02T04:30:04.369Z,1022.76
2024-02-02T04:31:04.426Z,1022.72
2024-02-02T04:32:04.504Z,1022.73
2024-02-02T04:33:04.682Z,1022.69
2024-02-02T04:34:04.854Z,1022.68
2024-02-02T04:35:04.783Z,1022.69
2024-02-02T04:36:04.947Z,1022.68
2024-02-02T04:37:04.990Z,1022.67
2024-02-02T04:38:05.079Z,1022.59
2024-02-02T04:39:05.173Z,1022.55
2024-02-02T04:40:05.210Z,1022.54
2024-02-02T04:41:05.326Z,1022.62
2024-02-02T04:42:05.398Z,1022.68
2024-02-02T04:43:05.482Z,1022.68
2024-02-02T04:44:05.530Z,1022.65
2024-02-02T04:45:05.671Z,1022.63
2024-02-02T04:46:05.676Z,1022.61
2024-02-02T04:47:05.780Z,1022.65
2024-02-02T04:48:05.978Z,1022.59
2024-02-02T04:49:06.046Z,1022.57
2024-02-02T04:50:06.043Z,1022.59
2024-02-02T04:51:06.168Z,1022.52
2024-02-02T04:52:06.206Z,1022.51
2024-02-02T04:53:06.296Z,1022.44
2024-02-02T04:54:06.431Z,1022.40
2024-02-02T04:55:06.465Z,1022.39
2024-02-02T04:56:06.545Z,1022.37
2024-02-02T04:57:06.621Z,1022.37
2024-02-02T04:58:06.975Z,1022.34
2024-02-02T04:59:06.795Z,1022.32
2024-02-02T05:00:06.948Z,1022.30
2024-02-02T05:01:06.944Z,1022.31
2024-02-02T05:02:07.153Z,1022.35
2024-02-02T05:03:07.228Z,1022.27
2024-02-02T05:04:07.250Z,1022.21
2024-02-02T05:05:07.308Z,1022.20
2024-02-02T05:06:07.429Z,1022.18
2024-02-02T05:07:07.465Z,1022.12
2024-02-02T05:08:07.645Z,1022.12
2024-02-02T05:09:07.687Z,1022.16
2024-02-02T05:10:07.696Z,1022.16
2024-02-02T05:11:07.806Z,1022.05
2024-02-02T05:12:07.897Z,1021.97
2024-02-02T05:13:07.928Z,1021.96
2024-02-02T05:14:08.038Z,1021.93
2024-02-02T05:15:08.179Z,1021.93
2024-02-02T05:16:08.181Z,1021.87
2024-02-02T05:17:08.273Z,1021.80
2024-02-02T05:18:08.802Z,1021.83
2024-02-02T05:19:08.488Z,1021.85
2024-02-02T05:20:08.486Z,1021.77
2024-02-02T05:21:08.617Z,1021.66
2024-02-02T05:22:08.682Z,1021.63
2024-02-02T05:23:08.714Z,1021.65
2024-02-02T05:24:21.843Z,1021.63
2024-02-02T05:25:08.988Z,1021.61
2024-02-02T05:26:09.024Z,1021.57
2024-02-02T05:27:09.128Z,1021.65
2024-02-02T05:28:09.155Z,1021.56
2024-02-02T05:29:09.254Z,1021.59
2024-02-02T05:30:09.325Z,1021.59
2024-02-02T05:31:09.402Z,1021.56
2024-02-02T05:32:09.495Z,1021.47
2024-02-02T05:33:09.754Z,1021.50
2024-02-02T05:34:09.848Z,1021.53
2024-02-02T05:35:09.776Z,1021.47
2024-02-02T05:36:09.843Z,1021.42
2024-02-02T05:37:09.926Z,1021.45
2024-02-02T05:38:09.969Z,1021.36
2024-02-02T05:39:10.126Z,1021.34
2024-02-02T05:40:10.152Z,1021.43
2024-02-02T05:41:10.259Z,1021.45
2024-02-02T05:42:10.359Z,1021.39
2024-02-02T05:43:10.419Z,1021.50
2024-02-02T05:44:10.478Z,1021.58
2024-02-02T05:45:10.649Z,1021.56
2024-02-02T05:46:10.727Z,1021.54
2024-02-02T05:47:10.769Z,1021.52
2024-02-02T05:48:11.039Z,1021.50
2024-02-02T05:49:10.953Z,1021.45
2024-02-02T05:50:11.014Z,1021.50
2024-02-02T05:51:11.152Z,1021.57
2024-02-02T05:52:11.223Z,1021.64
2024-02-02T05:53:11.225Z,1021.61
2024-02-02T05:54:11.338Z,1021.59
2024-02-02T05:55:11.372Z,1021.54
2024-02-02T05:56:11.433Z,1021.54
2024-02-02T05:57:11.575Z,1021.53
2024-02-02T05:58:11.593Z,1021.51
2024-02-02T05:59:11.689Z,1021.48
2024-02-02T06:00:11.815Z,1021.48
2024-02-02T06:01:11.854Z,1021.48
2024-02-02T06:02:11.945Z,1021.46
2024-02-02T06:03:12.060Z,1021.43
2024-02-02T06:04:12.166Z,1021.39
2024-02-02T06:05:12.221Z,1021.42
2024-02-02T06:06:12.410Z,1021.31
2024-02-02T06:07:12.532Z,1021.33
2024-02-02T06:08:12.433Z,1021.37
2024-02-02T06:09:12.721Z,1021.33
2024-02-02T06:10:12.631Z,1021.33
2024-02-02T06:11:12.683Z,1021.26
2024-02-02T06:12:12.802Z,1021.30
2024-02-02T06:13:12.872Z,1021.27
2024-02-02T06:14:12.966Z,1021.29
2024-02-02T06:15:13.040Z,1021.30
2024-02-02T06:16:13.118Z,1021.34
2024-02-02T06:17:13.212Z,1021.31
2024-02-02T06:18:13.379Z,1021.24
2024-02-02T06:19:13.379Z,1021.22
2024-02-02T06:20:13.406Z,1021.17
2024-02-02T06:21:13.506Z,1021.16
2024-02-02T06:22:13.540Z,1021.14
2024-02-02T06:23:13.629Z,1021.15
2024-02-02T06:24:13.885Z,1021.21
2024-02-02T06:25:13.788Z,1021.20
2024-02-02T06:26:13.893Z,1021.19
2024-02-02T06:27:13.984Z,1021.14
2024-02-02T06:28:14.019Z,1021.15
2024-02-02T06:29:14.160Z,1021.17
2024-02-02T06:30:14.212Z,1021.19
2024-02-02T06:31:14.299Z,1021.18
2024-02-02T06:32:14.367Z,1021.20
2024-02-02T06:33:14.685Z,1021.25
2024-02-02T06:34:14.733Z,1021.15
2024-02-02T06:35:14.711Z,1021.22
2024-02-02T06:36:14.733Z,1021.16
2024-02-02T06:37:14.762Z,1021.12
2024-02-02T06:38:14.873Z,1021.10
2024-02-02T06:39:14.930Z,1021.11
2024-02-02T06:40:14.966Z,1021.06
2024-02-02T06:41:15.087Z,1021.07
2024-02-02T06:42:15.176Z,1020.98
2024-02-02T06:43:15.239Z,1021.06
2024-02-02T06:44:15.341Z,1021.05
2024-02-02T06:45:15.419Z,1021.09
2024-02-02T06:46:15.487Z,1021.06
2024-02-02T06:47:15.596Z,1021.01
2024-02-02T06:48:15.701Z,1021.12
2024-02-02T06:49:15.817Z,1021.00
2024-02-02T06:50:15.805Z,1021.06
2024-02-02T06:51:15.958Z,1021.00
2024-02-02T06:52:16.003Z,1020.97
2024-02-02T06:53:16.098Z,1020.98
2024-02-02T06:54:16.147Z,1020.98
2024-02-02T06:55:16.370Z,1020.98
2024-02-02T06:56:16.331Z,1020.98
2024-02-02T06:57:16.407Z,1020.93
2024-02-02T06:58:16.468Z,1021.07
2024-02-02T06:59:16.541Z,1021.06
2024-02-02T07:00:16.696Z,1021.07
2024-02-02T07:01:16.698Z,1021.05
2024-02-02T07:02:16.753Z,1021.00
2024-02-02T07:03:16.978Z,1021.20
2024-02-02T07:04:17.159Z,1021.16
2024-02-02T07:05:17.024Z,1021.20
2024-02-02T07:06:17.251Z,1021.18
2024-02-02T07:07:17.327Z,1021.21
2024-02-02T07:08:17.292Z,1021.12
2024-02-02T07:09:17.397Z,1021.24
2024-02-02T07:10:17.459Z,1021.23
2024-02-02T07:11:17.532Z,1021.22
2024-02-02T07:12:17.626Z,1021.26
2024-02-02T07:13:17.752Z,1021.18
2024-02-02T07:14:17.788Z,1021.22
2024-02-02T07:15:18.027Z,1021.23
2024-02-02T07:16:17.954Z,1021.29
2024-02-02T07:17:18.048Z,1021.27
2024-02-02T07:18:18.294Z,1021.33
2024-02-02T07:19:18.345Z,1021.28
2024-02-02T07:20:18.300Z,1021.36
2024-02-02T07:21:18.444Z,1021.26
2024-02-02T07:22:18.446Z,1021.27
2024-02-02T07:24:33.077Z,1021.25
2024-02-02T07:25:34.186Z,1021.30
2024-02-02T07:26:34.212Z,1021.29
2024-02-02T07:27:34.378Z,1021.25
2024-02-02T07:28:34.791Z,1021.25
2024-02-02T07:29:34.468Z,1021.23
2024-02-02T07:30:34.619Z,1021.24
2024-02-02T07:31:34.649Z,1021.20
2024-02-02T07:32:34.719Z,1021.18
2024-02-02T07:33:34.835Z,1021.19
2024-02-02T07:34:35.076Z,1021.21
2024-02-02T07:35:34.914Z,1021.17
2024-02-02T07:36:35.192Z,1021.17
2024-02-02T07:37:35.079Z,1021.13
2024-02-02T07:38:35.184Z,1021.19
2024-02-02T07:39:35.398Z,1021.15
2024-02-02T07:40:35.325Z,1021.17
2024-02-02T07:41:35.486Z,1021.17
2024-02-02T07:42:47.536Z,1021.24
2024-02-02T07:43:35.709Z,1021.18
2024-02-02T07:44:35.708Z,1021.18
2024-02-02T07:45:35.862Z,1021.23
2024-02-02T07:46:35.910Z,1021.26
2024-02-02T07:47:36.004Z,1021.25
2024-02-02T07:48:36.151Z,1021.22
2024-02-02T07:49:36.284Z,1021.17
2024-02-02T07:50:36.260Z,1021.15
2024-02-02T07:51:36.395Z,1021.22
2024-02-02T07:52:36.379Z,1021.14
2024-02-02T07:53:36.430Z,1021.12
2024-02-02T07:54:36.603Z,1021.15
2024-02-02T07:55:36.611Z,1021.16
2024-02-02T07:56:36.702Z,1021.24
2024-02-02T07:57:36.847Z,1021.22
2024-02-02T07:58:36.935Z,1021.23
2024-02-02T07:59:36.970Z,1021.22
2024-02-02T08:00:37.212Z,1021.29
2024-02-02T08:01:37.183Z,1021.30
2024-02-02T08:02:37.235Z,1021.33
2024-02-02T08:03:37.400Z,1021.36
2024-02-02T08:04:37.515Z,1021.30
2024-02-02T08:05:37.498Z,1021.33
2024-02-02T08:06:37.700Z,1021.33
2024-02-02T08:07:37.703Z,1021.37
2024-02-02T08:08:37.951Z,1021.31
2024-02-02T08:09:37.956Z,1021.21
2024-02-02T08:10:37.915Z,1021.26
2024-02-02T08:11:37.984Z,1021.23
2024-02-02T08:12:38.139Z,1021.19
2024-02-02T08:13:38.181Z,1021.24
2024-02-02T08:14:38.249Z,1021.27
2024-02-02T08:15:38.430Z,1021.24
2024-02-02T08:16:38.522Z,1021.16
2024-02-02T08:17:38.560Z,1021.16
2024-02-02T08:18:38.798Z,1021.13
2024-02-02T08:19:39.081Z,1021.16
2024-02-02T08:20:38.780Z,1021.18
2024-02-02T08:21:38.997Z,1021.09
2024-02-02T08:22:38.945Z,1021.14
2024-02-02T08:23:39.028Z,1021.12
2024-02-02T08:24:39.141Z,1021.12
2024-02-02T08:25:39.193Z,1021.19
2024-02-02T08:26:39.255Z,1021.21
2024-02-02T08:27:39.368Z,1021.13
2024-02-02T08:28:45.664Z,1021.19
2024-02-02T08:29:39.572Z,1021.14
2024-02-02T08:30:39.710Z,1021.21
2024-02-02T08:31:39.724Z,1021.23
2024-02-02T08:32:39.866Z,1021.16
2024-02-02T08:33:39.895Z,1021.17
2024-02-02T08:34:39.995Z,1021.09
2024-02-02T08:35:40.039Z,1021.02
2024-02-02T08:36:40.137Z,1021.08
2024-02-02T08:37:40.210Z,1021.03
2024-02-02T08:38:40.289Z,1021.03
2024-02-02T08:39:40.405Z,1020.99
2024-02-02T08:40:40.491Z,1021.02
2024-02-02T08:41:40.539Z,1021.01
2024-02-02T08:42:40.737Z,1021.01
2024-02-02T08:43:40.759Z,1021.01
2024-02-02T08:44:40.819Z,1021.02
2024-02-02T08:45:40.941Z,1021.00
2024-02-02T08:46:40.973Z,1021.09
2024-02-02T08:47:41.039Z,1020.92
2024-02-02T08:48:41.202Z,1020.94
2024-02-02T08:49:41.224Z,1021.00
2024-02-02T08:50:41.282Z,1020.92
2024-02-02T08:51:43.623Z,1020.98
2024-02-02T08:52:41.496Z,1020.97
2024-02-02T08:53:41.562Z,1020.91
2024-02-02T08:54:41.921Z,1020.95
2024-02-02T08:55:41.699Z,1020.94
2024-02-02T08:56:41.802Z,1020.97
2024-02-02T08:57:42.016Z,1020.94
2024-02-02T08:58:41.956Z,1020.96
2024-02-02T08:59:42.059Z,1020.93
2024-02-02T09:00:42.315Z,1020.86
2024-02-02T09:01:42.275Z,1020.91
2024-02-02T09:02:42.317Z,1020.91
2024-02-02T09:03:42.450Z,1020.84
2024-02-02T09:04:42.514Z,1020.78
2024-02-02T09:05:42.600Z,1020.77
2024-02-02T09:06:42.754Z,1020.88
2024-02-02T09:07:42.751Z,1020.84
2024-02-02T09:08:42.819Z,1020.75
2024-02-02T09:09:42.976Z,1020.79
2024-02-02T09:10:42.968Z,1020.80
2024-02-02T09:11:43.025Z,1020.76
2024-02-02T09:12:43.158Z,1020.85
2024-02-02T09:13:43.212Z,1020.77
2024-02-02T09:14:43.376Z,1020.79
2024-02-02T09:15:43.453Z,1020.80
2024-02-02T09:16:43.488Z,1020.87
2024-02-02T09:17:43.575Z,1020.87
2024-02-02T09:18:43.620Z,1020.93
2024-02-02T09:19:43.731Z,1020.91
2024-02-02T09:20:44.068Z,1020.90
2024-02-02T09:21:43.886Z,1020.84
2024-02-02T09:22:43.941Z,1020.87
2024-02-02T09:23:44.014Z,1020.90
2024-02-02T09:24:44.264Z,1020.86
2024-02-02T09:25:44.205Z,1020.81
2024-02-02T09:26:44.250Z,1020.86
2024-02-02T09:27:44.370Z,1020.89
2024-02-02T09:28:44.469Z,1020.86
2024-02-02T09:29:44.617Z,1020.76
2024-02-02T09:30:44.676Z,1020.76
2024-02-02T09:31:44.719Z,1020.70
2024-02-02T09:32:45.225Z,1020.81
2024-02-02T09:33:44.944Z,1020.75
2024-02-02T09:34:45.001Z,1020.69
2024-02-02T09:35:45.024Z,1020.79
2024-02-02T09:36:45.128Z,1020.74
2024-02-02T09:37:45.171Z,1020.72
2024-02-02T09:38:45.247Z,1020.70
2024-02-02T09:39:45.362Z,1020.78
2024-02-02T09:40:45.384Z,1020.85
2024-02-02T09:41:45.455Z,1020.76
2024-02-02T09:42:45.548Z,1020.71
2024-02-02T09:43:45.619Z,1020.73
2024-02-02T09:44:45.692Z,1020.70
2024-02-02T09:45:45.783Z,1020.65
2024-02-02T09:46:45.854Z,1020.75
2024-02-02T09:47:45.975Z,1020.66
2024-02-02T09:48:46.094Z,1020.69
2024-02-02T09:49:46.178Z,1020.79
2024-02-02T09:50:46.162Z,1020.78
2024-02-02T09:51:46.242Z,1020.89
2024-02-02T09:52:46.361Z,1020.86
2024-02-02T09:53:46.410Z,1020.90
2024-02-02T09:54:46.484Z,1020.93
2024-02-02T09:55:46.566Z,1020.83
2024-02-02T09:56:46.618Z,1020.83
2024-02-02T09:57:46.744Z,1020.87
2024-02-02T09:58:46.802Z,1020.82
2024-02-02T09:59:46.919Z,1020.88
2024-02-02T10:00:47.039Z,1020.89
2024-02-02T10:01:47.054Z,1020.87
2024-02-02T10:02:47.171Z,1020.80
2024-02-02T10:03:47.298Z,1020.82
2024-02-02T10:04:47.402Z,1020.80
2024-02-02T10:05:47.409Z,1020.83
2024-02-02T10:06:47.548Z,1020.79
2024-02-02T10:07:47.506Z,1020.88
2024-02-02T10:08:47.614Z,1020.80
2024-02-02T10:09:47.706Z,1020.79
2024-02-02T10:10:47.779Z,1020.82
2024-02-02T10:11:47.837Z,1020.82
2024-02-02T10:12:47.948Z,1020.83
2024-02-02T10:13:48.032Z,1020.79
2024-02-02T10:14:48.075Z,1020.81
2024-02-02T10:15:48.307Z,1020.79
2024-02-02T10:16:48.251Z,1020.81
2024-02-02T10:17:48.428Z,1020.72
2024-02-02T10:18:48.673Z,1020.66
2024-02-02T10:19:48.587Z,1020.67
2024-02-02T10:20:48.600Z,1020.73
2024-02-02T10:21:48.696Z,1020.73
2024-02-02T10:22:48.820Z,1020.70
2024-02-02T10:23:48.803Z,1020.70
2024-02-02T10:24:48.933Z,1020.71
2024-02-02T10:25:48.969Z,1020.80
2024-02-02T10:26:49.057Z,1020.81
2024-02-02T10:27:49.123Z,1020.67
2024-02-02T10:28:49.241Z,1020.80
2024-02-02T10:29:49.304Z,1020.74
2024-02-02T10:30:49.365Z,1020.77
2024-02-02T10:31:49.480Z,1020.70
2024-02-02T10:32:49.584Z,1020.77
2024-02-02T10:33:49.701Z,1020.74
2024-02-02T10:34:49.727Z,1020.80
2024-02-02T10:35:49.780Z,1020.80
2024-02-02T10:36:49.847Z,1020.80
2024-02-02T10:37:49.915Z,1020.83
2024-02-02T10:38:50.057Z,1020.82
2024-02-02T10:39:50.196Z,1020.77
2024-02-02T10:40:50.195Z,1020.75
2024-02-02T10:41:52.319Z,1020.61
2024-02-02T10:42:50.396Z,1020.71
2024-02-02T10:43:50.437Z,1020.71
2024-02-02T10:44:50.510Z,1020.76
2024-02-02T10:45:50.608Z,1020.59
2024-02-02T10:46:50.705Z,1020.69
2024-02-02T10:47:50.868Z,1020.55
2024-02-02T10:48:50.965Z,1020.63
2024-02-02T10:49:51.014Z,1020.61
2024-02-02T10:50:50.987Z,1020.64
2024-02-02T10:51:51.082Z,1020.70
2024-02-02T10:52:51.156Z,1020.59
2024-02-02T10:53:51.214Z,1020.62
2024-02-02T10:54:51.282Z,1020.56
2024-02-02T10:55:51.387Z,1020.58
2024-02-02T10:56:51.500Z,1020.62
2024-02-02T10:57:51.579Z,1020.58
2024-02-02T10:58:51.631Z,1020.61
2024-02-02T10:59:51.746Z,1020.63
2024-02-02T11:00:51.910Z,1020.56
2024-02-02T11:01:51.886Z,1020.57
2024-02-02T11:02:51.964Z,1020.52
2024-02-02T11:03:52.141Z,1020.49
2024-02-02T11:04:52.145Z,1020.59
2024-02-02T11:05:52.269Z,1020.59
2024-02-02T11:06:52.432Z,1020.56
2024-02-02T11:07:52.383Z,1020.58
2024-02-02T11:08:52.434Z,1020.45
2024-02-02T11:09:52.547Z,1020.44
2024-02-02T11:10:52.623Z,1020.37
2024-02-02T11:11:52.715Z,1020.39
2024-02-02T11:12:52.770Z,1020.34
2024-02-02T11:13:52.867Z,1020.32
2024-02-02T11:14:52.953Z,1020.32
2024-02-02T11:15:53.012Z,1020.27
2024-02-02T11:16:53.101Z,1020.33
2024-02-02T11:17:53.287Z,1020.28
2024-02-02T11:18:53.390Z,1020.24
2024-02-02T11:19:53.456Z,1020.22
2024-02-02T11:20:53.477Z,1020.22
2024-02-02T11:21:53.548Z,1020.26
2024-02-02T11:22:53.601Z,1020.31
2024-02-02T11:23:53.683Z,1020.26
2024-02-02T11:24:53.785Z,1020.29
2024-02-02T11:25:53.829Z,1020.25
2024-02-02T11:26:53.906Z,1020.31
2024-02-02T11:27:54.019Z,1020.34
2024-02-02T11:28:54.092Z,1020.32
2024-02-02T11:29:54.178Z,1020.32
2024-02-02T11:30:54.234Z,1020.32
2024-02-02T11:31:54.340Z,1020.30
2024-02-02T11:32:54.506Z,1020.27
2024-02-02T11:33:54.617Z,1020.25
2024-02-02T11:34:54.588Z,1020.31
2024-02-02T11:35:54.679Z,1020.27
2024-02-02T11:36:54.720Z,1020.34
2024-02-02T11:37:54.825Z,1020.24
2024-02-02T11:38:54.911Z,1020.23
2024-02-02T11:39:55.051Z,1020.13
2024-02-02T11:40:55.059Z,1019.98
2024-02-02T11:41:55.181Z,1020.00
2024-02-02T11:42:55.215Z,1020.00
2024-02-02T11:43:55.312Z,1019.96
2024-02-02T11:44:55.468Z,1020.00
2024-02-02T11:45:55.466Z,1019.98
2024-02-02T11:46:55.517Z,1019.99
2024-02-02T11:47:55.681Z,1019.99
2024-02-02T11:48:55.794Z,1020.03
2024-02-02T11:49:55.808Z,1020.01
2024-02-02T11:50:55.916Z,1020.05
2024-02-02T11:51:55.958Z,1020.01
2024-02-02T11:52:56.017Z,1020.06
2024-02-02T11:53:56.120Z,1020.08
2024-02-02T11:54:56.170Z,1019.99
2024-02-02T11:55:56.236Z,1020.06
2024-02-02T11:56:56.417Z,1019.97
2024-02-02T11:57:56.520Z,1020.08
2024-02-02T11:58:56.541Z,1019.95
2024-02-02T11:59:56.702Z,1019.91
2024-02-02T12:00:56.715Z,1019.89
2024-02-02T12:01:56.728Z,1019.92
2024-02-02T12:02:56.919Z,1019.88
2024-02-02T12:03:56.911Z,1019.92
2024-02-02T12:04:57.044Z,1019.86
2024-02-02T12:05:57.223Z,1019.80
2024-02-02T12:06:57.298Z,1019.84
2024-02-02T12:07:57.341Z,1019.83